Time;durP1;ratioP1;P1;durP2;ratioP2;P2;SDS_P1;SDS_P2;PMS_P1;PMS_P2;Temp;Humidity;BMP_temperature;BMP_pressure;BME280_temperature;BME280_humidity;BME280_pressure;Samples;Min_cycle;Max_cycle;Signal;HPM_P1;HPM_P2
2023/08/30 00:00:39;;;;;;;6.72;2.30;;;13.00;99.90;;;;;;5091785;28;20035;-77
2023/08/30 00:03:06;;;;;;;5.25;1.70;;;12.90;99.90;;;;;;5092101;28;20070;-77
2023/08/30 00:05:31;;;;;;;6.65;1.70;;;13.00;99.90;;;;;;5091118;28;20039;-77
2023/08/30 00:07:57;;;;;;;5.78;1.60;;;13.00;99.90;;;;;;5091927;28;20381;-76
2023/08/30 00:10:23;;;;;;;6.65;2.08;;;13.00;99.90;;;;;;5090809;28;20032;-77
2023/08/30 00:12:49;;;;;;;5.55;1.90;;;12.90;99.90;;;;;;5091568;28;20039;-77
2023/08/30 00:15:15;;;;;;;6.05;1.75;;;12.90;99.90;;;;;;5091200;28;20024;-77
2023/08/30 00:17:41;;;;;;;6.35;1.40;;;12.90;99.90;;;;;;5091731;28;20068;-77
2023/08/30 00:20:08;;;;;;;6.68;2.13;;;12.90;99.90;;;;;;5091386;28;20060;-77
2023/08/30 00:22:35;;;;;;;3.58;1.75;;;12.80;99.90;;;;;;5090389;28;20028;-77
2023/08/30 00:25:01;;;;;;;7.93;1.90;;;12.80;99.90;;;;;;5072757;28;20051;-77
2023/08/30 00:27:27;;;;;;;6.38;2.05;;;12.80;99.90;;;;;;5090121;28;20038;-77
2023/08/30 00:29:53;;;;;;;7.63;2.25;;;12.80;99.90;;;;;;5091108;28;20032;-78
2023/08/30 00:32:18;;;;;;;8.23;2.10;;;12.80;99.90;;;;;;5090178;28;20035;-77
2023/08/30 00:34:44;;;;;;;8.35;1.90;;;12.70;99.90;;;;;;5091465;28;20024;-77
2023/08/30 00:37:10;;;;;;;6.90;1.85;;;12.70;99.90;;;;;;5090968;28;20055;-77
2023/08/30 00:39:39;;;;;;;8.43;1.90;;;12.70;99.90;;;;;;5090324;28;20127;-76
2023/08/30 00:42:07;;;;;;;8.10;2.25;;;12.70;99.90;;;;;;5090898;28;20024;-76
2023/08/30 00:44:33;;;;;;;10.70;2.00;;;12.70;99.90;;;;;;5090608;28;20800;-77
2023/08/30 00:47:01;;;;;;;7.88;2.50;;;12.70;99.90;;;;;;5090966;28;20032;-76
2023/08/30 00:49:27;;;;;;;12.55;3.60;;;12.70;99.90;;;;;;5089712;28;20024;-76
2023/08/30 00:51:54;;;;;;;14.60;3.80;;;12.70;99.90;;;;;;5093064;28;20063;-76
2023/08/30 00:54:19;;;;;;;10.15;3.30;;;12.60;99.90;;;;;;5096906;28;20043;-76
2023/08/30 00:56:46;;;;;;;12.95;3.33;;;12.60;99.90;;;;;;5097604;28;20039;-77
2023/08/30 00:59:12;;;;;;;10.40;2.92;;;12.60;99.90;;;;;;5097261;28;20027;-75
2023/08/30 01:01:40;;;;;;;9.57;2.47;;;12.60;99.90;;;;;;5078794;28;20165;-76
2023/08/30 01:04:05;;;;;;;6.07;2.10;;;12.50;99.90;;;;;;5096912;28;20052;-77
2023/08/30 01:06:31;;;;;;;5.00;1.90;;;12.50;99.90;;;;;;5096432;28;20109;-77
2023/08/30 01:08:57;;;;;;;3.95;1.88;;;12.50;99.90;;;;;;5097113;28;20031;-76
2023/08/30 01:12:01;;;;;;;3.50;1.63;;;12.50;99.90;;;;;;5098070;28;20020;-76
2023/08/30 01:14:49;;;;;;;5.45;1.73;;;12.50;99.90;;;;;;5084146;28;20040;-77
2023/08/30 01:17:17;;;;;;;5.18;1.55;;;12.50;99.90;;;;;;5099455;28;20066;-77
2023/08/30 01:19:54;;;;;;;8.02;1.88;;;12.60;99.90;;;;;;5098476;28;20035;-77
2023/08/30 01:22:38;;;;;;;9.05;1.77;;;12.60;99.90;;;;;;5097201;28;20024;-77
2023/08/30 01:25:15;;;;;;;3.50;1.20;;;12.60;99.90;;;;;;5096574;28;20028;-77
2023/08/30 01:27:43;;;;;;;6.60;2.20;;;12.60;99.90;;;;;;5096673;28;20129;-77
2023/08/30 01:30:10;;;;;;;7.88;2.42;;;12.60;99.90;;;;;;5097060;28;20051;-77
2023/08/30 01:32:38;;;;;;;8.45;2.65;;;12.70;99.90;;;;;;5096528;28;20114;-77
2023/08/30 01:35:06;;;;;;;14.95;3.83;;;12.70;99.90;;;;;;5078535;28;20024;-77
2023/08/30 01:37:32;;;;;;;6.38;2.50;;;12.70;99.90;;;;;;5096183;28;20028;-77
2023/08/30 01:39:59;;;;;;;9.10;2.85;;;12.70;99.90;;;;;;5096553;28;20615;-77
2023/08/30 01:42:26;;;;;;;10.10;2.25;;;12.90;99.90;;;;;;5095909;28;20015;-78
2023/08/30 01:44:57;;;;;;;10.10;1.67;;;12.80;99.90;;;;;;5096424;28;20150;-76
2023/08/30 01:47:25;;;;;;;5.38;1.83;;;12.90;99.90;;;;;;5096183;28;20073;-78
2023/08/30 01:49:52;;;;;;;6.07;1.58;;;12.90;99.90;;;;;;5096505;28;20030;-76
2023/08/30 01:52:19;;;;;;;6.90;1.75;;;12.90;99.90;;;;;;5096690;28;20048;-78
2023/08/30 01:54:46;;;;;;;3.47;1.60;;;12.90;99.90;;;;;;5097015;28;20031;-75
2023/08/30 01:57:12;;;;;;;8.75;1.98;;;13.00;99.90;;;;;;5078659;28;20036;-77
2023/08/30 01:59:38;;;;;;;6.00;1.98;;;13.00;99.90;;;;;;5096371;28;20040;-77
2023/08/30 02:02:04;;;;;;;5.05;1.38;;;13.00;99.90;;;;;;5096839;28;20026;-76
2023/08/30 02:04:31;;;;;;;5.43;1.15;;;13.00;99.90;;;;;;5093011;28;20103;-78
2023/08/30 02:07:08;;;;;;;3.05;1.20;;;13.00;99.90;;;;;;5093734;28;20075;-76
2023/08/30 02:09:36;;;;;;;5.57;1.58;;;13.10;99.90;;;;;;5074675;28;20376;-77
2023/08/30 02:12:07;;;;;;;6.15;1.60;;;13.10;99.90;;;;;;5093979;28;20070;-77
2023/08/30 02:14:33;;;;;;;9.48;1.42;;;13.10;99.90;;;;;;5092864;28;20021;-77
2023/08/30 02:16:59;;;;;;;3.72;1.20;;;13.10;99.90;;;;;;5093388;28;20032;-77
2023/08/30 02:19:25;;;;;;;8.02;1.65;;;13.10;99.90;;;;;;5092622;28;20028;-77
2023/08/30 02:21:51;;;;;;;4.32;1.30;;;13.10;99.90;;;;;;5092872;28;20039;-77
2023/08/30 02:24:17;;;;;;;6.28;1.30;;;13.10;99.90;;;;;;5093090;28;20024;-76
2023/08/30 02:26:43;;;;;;;7.65;1.70;;;13.10;99.90;;;;;;5092563;28;20020;-77
2023/08/30 02:29:09;;;;;;;6.95;1.73;;;13.00;99.90;;;;;;5093100;28;20120;-77
2023/08/30 02:31:35;;;;;;;5.70;1.88;;;13.00;99.90;;;;;;5092347;28;20024;-77
2023/08/30 02:34:02;;;;;;;4.63;1.42;;;13.00;99.90;;;;;;5092528;28;20111;-77
2023/08/30 02:36:28;;;;;;;1.88;1.10;;;13.00;99.90;;;;;;5092599;28;20458;-77
2023/08/30 02:38:53;;;;;;;4.32;1.83;;;12.90;99.90;;;;;;5092880;28;20025;-76
2023/08/30 02:41:19;;;;;;;4.18;1.30;;;12.90;99.90;;;;;;5074721;28;20027;-76
2023/08/30 02:43:45;;;;;;;4.07;1.40;;;12.90;99.90;;;;;;5092033;28;20031;-77
2023/08/30 02:46:10;;;;;;;6.78;1.90;;;12.90;99.90;;;;;;5093004;28;20024;-77
2023/08/30 02:48:36;;;;;;;6.32;2.28;;;12.80;99.90;;;;;;5092100;28;20423;-77
2023/08/30 02:51:02;;;;;;;5.45;1.63;;;12.80;99.90;;;;;;5092614;28;20074;-77
2023/08/30 02:53:27;;;;;;;11.10;1.83;;;12.80;99.90;;;;;;5092281;28;20384;-77
2023/08/30 02:55:55;;;;;;;6.18;1.48;;;12.70;99.90;;;;;;5092639;28;20027;-77
2023/08/30 02:58:22;;;;;;;6.38;1.48;;;12.70;99.90;;;;;;5092582;28;20032;-77
2023/08/30 03:00:48;;;;;;;7.32;1.52;;;12.70;99.90;;;;;;5073823;28;20028;-76
2023/08/30 03:03:13;;;;;;;7.28;2.00;;;12.70;99.90;;;;;;5092719;28;20027;-77
2023/08/30 03:05:39;;;;;;;8.48;2.13;;;12.60;99.90;;;;;;5091453;28;20024;-76
2023/08/30 03:08:05;;;;;;;5.22;1.67;;;12.60;99.90;;;;;;5092891;28;20371;-77
2023/08/30 03:10:32;;;;;;;4.85;1.95;;;12.50;99.90;;;;;;5091705;28;20060;-77
2023/08/30 03:12:58;;;;;;;6.05;1.95;;;12.50;99.90;;;;;;5092176;28;20043;-76
2023/08/30 03:15:23;;;;;;;5.82;1.40;;;12.50;99.90;;;;;;5090593;28;20020;-76
2023/08/30 03:17:49;;;;;;;3.28;1.70;;;12.50;99.90;;;;;;5092041;28;20047;-76
2023/08/30 03:20:15;;;;;;;8.23;1.85;;;12.50;99.90;;;;;;5092192;28;20028;-76
2023/08/30 03:22:41;;;;;;;8.27;2.00;;;12.40;99.90;;;;;;5091435;28;20032;-77
2023/08/30 03:25:09;;;;;;;6.95;1.75;;;12.50;99.90;;;;;;5091877;28;20110;-76
2023/08/30 03:27:35;;;;;;;4.60;2.15;;;12.50;99.90;;;;;;5091278;28;20429;-76
2023/08/30 03:30:02;;;;;;;5.75;1.80;;;12.50;99.90;;;;;;5073559;28;20118;-76
2023/08/30 03:32:28;;;;;;;3.55;1.63;;;12.40;99.90;;;;;;5090947;28;20131;-76
2023/08/30 03:34:53;;;;;;;4.55;1.80;;;12.40;99.90;;;;;;5091851;28;20081;-77
2023/08/30 03:37:19;;;;;;;9.30;1.75;;;12.40;99.90;;;;;;5073429;28;20028;-76
2023/08/30 03:39:45;;;;;;;4.57;1.58;;;12.40;99.90;;;;;;5090851;28;20028;-77
2023/08/30 03:42:10;;;;;;;3.80;1.40;;;12.40;99.90;;;;;;5091814;28;20067;-77
2023/08/30 03:44:38;;;;;;;4.25;1.58;;;12.30;99.90;;;;;;5090933;28;20377;-77
2023/08/30 03:47:04;;;;;;;3.85;1.48;;;12.30;99.90;;;;;;5091774;28;20039;-77
2023/08/30 03:49:30;;;;;;;7.63;1.80;;;12.30;99.90;;;;;;5091255;28;20024;-76
2023/08/30 03:51:56;;;;;;;6.18;2.08;;;12.30;99.90;;;;;;5091546;28;20047;-77
2023/08/30 03:54:21;;;;;;;5.80;1.80;;;12.20;99.90;;;;;;5091943;28;20028;-76
2023/08/30 03:56:47;;;;;;;9.15;2.13;;;12.30;99.90;;;;;;5090822;28;20092;-77
2023/08/30 03:59:13;;;;;;;4.60;1.70;;;12.30;99.90;;;;;;5073481;28;20031;-77
2023/08/30 04:01:39;;;;;;;7.57;2.20;;;12.30;99.90;;;;;;5091044;28;20024;-77
2023/08/30 04:04:05;;;;;;;7.45;2.10;;;12.30;99.90;;;;;;5091008;28;20110;-77
2023/08/30 04:06:31;;;;;;;6.82;2.00;;;12.30;99.90;;;;;;5090822;28;20028;-77
2023/08/30 04:08:57;;;;;;;13.48;2.63;;;12.40;99.90;;;;;;5091183;28;20028;-76
2023/08/30 04:11:23;;;;;;;7.47;1.75;;;12.40;99.90;;;;;;5090995;28;20101;-77
2023/08/30 04:13:48;;;;;;;5.00;1.70;;;12.30;99.90;;;;;;5090513;28;20035;-77
2023/08/30 04:16:14;;;;;;;5.57;1.88;;;12.40;99.90;;;;;;5091030;28;20103;-77
2023/08/30 04:18:40;;;;;;;5.90;1.70;;;12.40;99.90;;;;;;5090804;28;20036;-76
2023/08/30 04:21:08;;;;;;;8.10;2.65;;;12.40;99.90;;;;;;5090674;28;20055;-77
2023/08/30 04:23:33;;;;;;;4.72;1.80;;;12.50;99.90;;;;;;5090507;28;20085;-76
2023/08/30 04:25:59;;;;;;;9.15;2.20;;;12.50;99.90;;;;;;5090773;28;20043;-76
2023/08/30 04:28:26;;;;;;;5.68;2.13;;;12.50;99.90;;;;;;5091696;28;20130;-77
2023/08/30 04:30:54;;;;;;;7.78;2.30;;;12.50;99.90;;;;;;5091261;28;20028;-77
2023/08/30 04:33:20;;;;;;;4.75;1.50;;;12.50;99.90;;;;;;5091944;28;20142;-77
2023/08/30 04:35:54;;;;;;;6.60;1.67;;;12.50;99.90;;;;;;5092364;28;20028;-77
2023/08/30 04:38:20;;;;;;;8.15;2.20;;;12.40;99.90;;;;;;5093242;28;20020;-78
2023/08/30 04:40:47;;;;;;;4.40;1.98;;;12.40;99.90;;;;;;5073446;28;20047;-77
2023/08/30 04:43:12;;;;;;;5.35;2.00;;;12.40;99.90;;;;;;5091548;28;20378;-77
2023/08/30 04:45:38;;;;;;;4.55;2.28;;;12.30;99.90;;;;;;5090275;28;20052;-78
2023/08/30 04:48:04;;;;;;;9.55;2.22;;;12.30;99.90;;;;;;5095411;28;20061;-77
2023/08/30 04:50:30;;;;;;;3.30;1.55;;;12.20;99.90;;;;;;5097911;28;20035;-76
2023/08/30 04:52:56;;;;;;;4.95;2.03;;;12.20;99.90;;;;;;5091100;28;20477;-76
2023/08/30 04:55:25;;;;;;;7.32;2.35;;;12.20;99.90;;;;;;5090838;28;20028;-77
2023/08/30 04:57:51;;;;;;;6.05;2.10;;;12.10;99.90;;;;;;5089824;28;20056;-76
2023/08/30 05:00:17;;;;;;;5.40;2.03;;;12.10;99.90;;;;;;5090694;28;20061;-77
2023/08/30 05:02:46;;;;;;;11.57;2.22;;;12.00;99.90;;;;;;5089698;28;20453;-75
2023/08/30 05:05:12;;;;;;;6.03;2.25;;;12.00;99.90;;;;;;5090582;28;20028;-76
2023/08/30 05:07:38;;;;;;;7.38;2.20;;;11.90;99.90;;;;;;5071453;28;20028;-77
2023/08/30 05:10:06;;;;;;;9.68;2.42;;;11.90;99.90;;;;;;5090202;28;20046;-76
2023/08/30 05:12:33;;;;;;;7.25;2.10;;;11.90;99.90;;;;;;5089847;28;20032;-77
2023/08/30 05:14:59;;;;;;;5.03;2.17;;;11.80;99.90;;;;;;5090415;28;20039;-75
2023/08/30 05:17:25;;;;;;;4.55;1.98;;;11.80;99.90;;;;;;5090482;28;20020;-76
2023/08/30 05:19:51;;;;;;;6.68;2.20;;;11.80;99.90;;;;;;5071603;28;20028;-76
2023/08/30 05:22:16;;;;;;;6.03;1.92;;;11.80;99.90;;;;;;5090142;28;20035;-77
2023/08/30 05:24:42;;;;;;;8.68;2.08;;;11.80;99.90;;;;;;5089400;28;20109;-77
2023/08/30 05:27:08;;;;;;;6.55;2.40;;;11.90;99.90;;;;;;5090296;28;20345;-77
2023/08/30 05:29:34;;;;;;;5.50;2.20;;;11.80;99.90;;;;;;5089629;28;20028;-78
2023/08/30 05:31:59;;;;;;;9.98;2.50;;;11.80;99.90;;;;;;5090135;28;20039;-76
2023/08/30 05:34:26;;;;;;;7.03;2.22;;;11.80;99.90;;;;;;5090268;28;20111;-77
2023/08/30 05:36:53;;;;;;;7.45;2.40;;;11.80;99.90;;;;;;5071578;28;20032;-77
2023/08/30 05:39:18;;;;;;;8.25;2.65;;;11.80;99.90;;;;;;5091937;28;20035;-77
2023/08/30 05:41:44;;;;;;;7.13;2.03;;;11.80;99.90;;;;;;5093404;28;20028;-76
2023/08/30 05:44:10;;;;;;;8.80;2.70;;;11.80;99.90;;;;;;5093613;28;20140;-76
2023/08/30 05:46:36;;;;;;;6.60;2.05;;;11.80;99.90;;;;;;5074920;28;20464;-77
2023/08/30 05:49:02;;;;;;;8.52;2.30;;;11.80;99.90;;;;;;5076004;28;20039;-77
2023/08/30 05:51:29;;;;;;;8.25;2.85;;;11.80;99.90;;;;;;5093862;28;20116;-76
2023/08/30 05:53:54;;;;;;;6.30;1.95;;;11.80;99.90;;;;;;5092910;28;20063;-76
2023/08/30 05:56:20;;;;;;;8.73;2.22;;;11.90;99.90;;;;;;5093506;28;20409;-76
2023/08/30 05:58:46;;;;;;;4.13;1.80;;;11.90;99.90;;;;;;5092978;28;20461;-76
2023/08/30 06:01:12;;;;;;;8.88;2.83;;;11.90;99.90;;;;;;5093678;28;20035;-76
2023/08/30 06:03:37;;;;;;;10.93;2.70;;;12.00;99.90;;;;;;5093185;28;20095;-76
2023/08/30 06:06:03;;;;;;;7.93;2.50;;;12.00;99.90;;;;;;5093653;28;20052;-75
2023/08/30 06:08:29;;;;;;;6.40;2.28;;;12.10;99.90;;;;;;5093243;28;20537;-75
2023/08/30 06:10:55;;;;;;;7.50;2.58;;;12.20;99.90;;;;;;5093185;28;20560;-77
2023/08/30 06:13:21;;;;;;;10.43;2.65;;;12.20;99.90;;;;;;5093202;28;20519;-75
2023/08/30 06:15:51;;;;;;;5.22;2.22;;;12.40;99.90;;;;;;5092412;28;20101;-76
2023/08/30 06:18:16;;;;;;;8.82;2.90;;;12.50;99.90;;;;;;5075415;28;20055;-76
2023/08/30 06:20:42;;;;;;;4.68;2.50;;;12.60;99.90;;;;;;5092417;28;20421;-76
2023/08/30 06:23:08;;;;;;;6.13;1.85;;;12.80;99.90;;;;;;5093148;28;20028;-75
2023/08/30 06:25:33;;;;;;;5.57;2.20;;;12.90;99.90;;;;;;5093265;28;20121;-75
2023/08/30 06:28:01;;;;;;;4.53;2.03;;;13.10;99.90;;;;;;5092676;28;20028;-76
2023/08/30 06:30:30;;;;;;;5.97;1.85;;;13.20;99.90;;;;;;5092580;28;20493;-76
2023/08/30 06:32:57;;;;;;;5.55;2.05;;;13.20;99.90;;;;;;5091998;28;20020;-75
2023/08/30 06:35:23;;;;;;;6.57;1.85;;;13.30;99.90;;;;;;5074547;28;20024;-76
2023/08/30 06:37:49;;;;;;;7.60;2.35;;;13.50;99.90;;;;;;5092185;28;20028;-76
2023/08/30 06:40:14;;;;;;;5.30;2.03;;;13.60;99.90;;;;;;5092630;28;20024;-76
2023/08/30 06:42:40;;;;;;;6.18;2.08;;;13.70;99.90;;;;;;5073507;28;20043;-77
2023/08/30 06:45:07;;;;;;;4.05;1.98;;;13.80;99.90;;;;;;5092299;28;20123;-76
2023/08/30 06:47:32;;;;;;;7.22;3.08;;;13.80;99.90;;;;;;5092098;28;20101;-78
2023/08/30 06:49:59;;;;;;;7.00;1.95;;;13.90;99.90;;;;;;5091761;28;20028;-76
2023/08/30 06:52:25;;;;;;;8.20;2.15;;;14.10;99.90;;;;;;5092369;28;20105;-76
2023/08/30 06:54:50;;;;;;;5.78;2.50;;;14.10;99.90;;;;;;5091938;28;20052;-77
2023/08/30 06:57:16;;;;;;;7.30;2.05;;;14.20;99.90;;;;;;5092479;28;20093;-76
2023/08/30 06:59:42;;;;;;;4.45;1.63;;;14.20;99.90;;;;;;5091733;28;20038;-76
2023/08/30 07:02:08;;;;;;;8.30;2.22;;;14.30;99.90;;;;;;5092196;28;20028;-76
2023/08/30 07:04:34;;;;;;;7.05;1.95;;;14.30;99.90;;;;;;5092374;28;20024;-77
2023/08/30 07:07:00;;;;;;;3.30;1.67;;;14.20;99.90;;;;;;5091632;28;20035;-77
2023/08/30 07:09:29;;;;;;;6.38;2.03;;;14.30;99.90;;;;;;5092195;28;20031;-76
2023/08/30 07:11:55;;;;;;;7.45;2.13;;;14.30;99.90;;;;;;5091561;28;20069;-78
2023/08/30 07:14:21;;;;;;;9.18;1.90;;;14.30;99.90;;;;;;5092028;28;20024;-76
2023/08/30 07:16:49;;;;;;;4.05;1.73;;;14.40;99.90;;;;;;5091418;28;20027;-77
2023/08/30 07:19:15;;;;;;;5.85;1.90;;;14.50;99.90;;;;;;5092099;28;20028;-76
2023/08/30 07:21:42;;;;;;;5.63;2.05;;;14.70;99.90;;;;;;5091667;28;20088;-77
2023/08/30 07:24:08;;;;;;;5.40;1.90;;;14.80;99.90;;;;;;5091353;28;20032;-77
2023/08/30 07:26:34;;;;;;;4.72;1.90;;;14.90;99.90;;;;;;5091840;28;20113;-77
2023/08/30 07:29:00;;;;;;;7.50;1.80;;;15.00;99.90;;;;;;5091254;28;20020;-77
2023/08/30 07:31:26;;;;;;;6.65;1.88;;;15.00;99.90;;;;;;5091648;28;20024;-78
2023/08/30 07:33:51;;;;;;;3.70;1.70;;;15.00;99.90;;;;;;5090923;28;20032;-77
2023/08/30 07:36:17;;;;;;;3.92;1.63;;;15.10;99.90;;;;;;5091318;28;20078;-77
2023/08/30 07:38:43;;;;;;;8.73;2.10;;;15.10;99.90;;;;;;5090490;28;20024;-77
2023/08/30 07:41:09;;;;;;;8.50;2.00;;;15.20;99.90;;;;;;5092141;28;20111;-77
2023/08/30 07:43:35;;;;;;;6.50;1.90;;;15.20;99.90;;;;;;5091289;28;20534;-77
2023/08/30 07:46:01;;;;;;;6.13;1.73;;;15.30;99.90;;;;;;5090954;28;20097;-77
2023/08/30 07:48:27;;;;;;;3.92;1.90;;;15.30;99.90;;;;;;5073457;28;20037;-77
2023/08/30 07:50:52;;;;;;;4.00;1.63;;;15.20;99.90;;;;;;5090798;28;20089;-78
2023/08/30 07:53:18;;;;;;;5.68;1.63;;;15.40;99.90;;;;;;5091433;28;20028;-78
2023/08/30 07:55:50;;;;;;;4.80;1.85;;;15.40;99.90;;;;;;5090632;28;20484;-78
2023/08/30 07:58:17;;;;;;;9.00;1.80;;;15.50;99.90;;;;;;5091509;28;20024;-78
2023/08/30 08:00:43;;;;;;;8.15;2.15;;;15.50;99.90;;;;;;5090390;28;20148;-78
2023/08/30 08:03:10;;;;;;;7.38;2.00;;;15.60;99.90;;;;;;5091112;28;20462;-78
2023/08/30 08:05:36;;;;;;;4.55;1.77;;;15.60;99.90;;;;;;5091210;28;20124;-78
2023/08/30 08:08:02;;;;;;;5.13;1.33;;;15.70;99.90;;;;;;5090834;28;20132;-78
2023/08/30 08:10:33;;;;;;;3.28;1.60;;;15.80;99.90;;;;;;5090733;28;20575;-76
2023/08/30 08:12:59;;;;;;;5.75;2.17;;;16.00;99.90;;;;;;5090625;28;20157;-76
2023/08/30 08:15:25;;;;;;;8.40;1.92;;;16.10;99.90;;;;;;5090730;28;20039;-77
2023/08/30 08:17:51;;;;;;;4.45;1.77;;;16.20;99.90;;;;;;5091122;28;20024;-78
2023/08/30 08:20:16;;;;;;;6.40;1.65;;;16.20;99.90;;;;;;5091092;28;20047;-77
2023/08/30 08:22:42;;;;;;;4.93;1.63;;;16.20;99.90;;;;;;5091430;28;20051;-77
2023/08/30 08:25:09;;;;;;;4.75;1.48;;;16.30;99.90;;;;;;5090776;28;20165;-77
2023/08/30 08:27:36;;;;;;;5.25;1.70;;;16.40;99.90;;;;;;5090758;28;20444;-78
2023/08/30 08:30:04;;;;;;;5.00;1.67;;;16.50;99.90;;;;;;5072866;28;20036;-77
2023/08/30 08:32:30;;;;;;;6.05;1.63;;;16.50;99.90;;;;;;5091900;28;20121;-77
2023/08/30 08:34:56;;;;;;;6.60;1.77;;;16.60;99.90;;;;;;5091513;28;20081;-77
2023/08/30 08:37:22;;;;;;;6.85;1.80;;;16.60;99.90;;;;;;5091610;28;20143;-77
2023/08/30 08:39:50;;;;;;;7.43;1.63;;;16.70;99.90;;;;;;5089641;28;20560;-78
2023/08/30 08:42:17;;;;;;;9.43;2.22;;;16.70;99.90;;;;;;5090741;28;20028;-77
2023/08/30 08:44:46;;;;;;;4.28;1.60;;;16.70;99.90;;;;;;5090323;28;20101;-77
2023/08/30 08:47:11;;;;;;;3.60;1.35;;;16.90;99.90;;;;;;5091000;28;20032;-78
2023/08/30 08:49:38;;;;;;;7.30;1.50;;;17.00;99.90;;;;;;5090343;28;20115;-77
2023/08/30 08:52:04;;;;;;;9.90;2.10;;;17.00;99.90;;;;;;5090075;28;20056;-78
2023/08/30 08:54:30;;;;;;;13.68;2.10;;;17.00;99.90;;;;;;5090036;28;20020;-77
2023/08/30 08:56:57;;;;;;;3.20;1.42;;;17.10;99.90;;;;;;5090221;28;20021;-78
2023/08/30 08:59:24;;;;;;;9.52;1.80;;;17.10;99.90;;;;;;5090653;28;20028;-78
2023/08/30 09:01:50;;;;;;;4.68;1.65;;;17.10;99.90;;;;;;5090323;28;20484;-78
2023/08/30 09:04:16;;;;;;;3.15;1.27;;;17.10;99.90;;;;;;5090574;28;20480;-78
2023/08/30 09:06:43;;;;;;;4.80;1.30;;;17.10;99.90;;;;;;5090656;28;20032;-78
2023/08/30 09:09:09;;;;;;;4.20;1.58;;;17.00;99.90;;;;;;5090099;28;20441;-78
2023/08/30 09:11:35;;;;;;;4.00;1.30;;;17.10;99.90;;;;;;5090254;28;20361;-78
2023/08/30 09:14:01;;;;;;;6.20;1.65;;;17.10;99.90;;;;;;5093472;28;20511;-78
2023/08/30 09:16:27;;;;;;;5.50;1.65;;;17.10;99.90;;;;;;5094086;28;20039;-78
2023/08/30 09:19:04;;;;;;;5.50;1.77;;;17.20;99.90;;;;;;5094314;28;20344;-78
2023/08/30 09:21:33;;;;;;;8.07;1.85;;;17.20;99.90;;;;;;5093926;28;20036;-78
2023/08/30 09:24:01;;;;;;;5.25;1.73;;;17.20;99.90;;;;;;5093361;28;20104;-78
2023/08/30 09:26:31;;;;;;;8.10;2.00;;;17.20;99.90;;;;;;5094210;28;20074;-77
2023/08/30 09:29:10;;;;;;;6.50;2.00;;;17.30;99.90;;;;;;5093444;28;20032;-77
2023/08/30 09:31:37;;;;;;;3.45;1.10;;;17.30;99.90;;;;;;5094233;28;20036;-77
2023/08/30 09:34:06;;;;;;;4.38;1.42;;;17.20;99.90;;;;;;5094075;28;20032;-77
2023/08/30 09:36:36;;;;;;;4.63;2.05;;;17.30;99.90;;;;;;5094325;28;20032;-77
2023/08/30 09:39:14;;;;;;;5.45;2.08;;;17.40;99.90;;;;;;5094273;28;20031;-77
2023/08/30 09:41:45;;;;;;;6.32;1.92;;;17.70;99.90;;;;;;5094469;28;20102;-77
2023/08/30 09:44:16;;;;;;;4.55;1.40;;;17.60;99.90;;;;;;5093695;28;20504;-77
2023/08/30 09:46:46;;;;;;;4.50;1.73;;;17.60;99.90;;;;;;5094568;28;20380;-76
2023/08/30 09:49:13;;;;;;;6.68;2.28;;;17.60;99.90;;;;;;5093754;28;20020;-77
2023/08/30 09:51:42;;;;;;;7.13;1.90;;;17.50;99.90;;;;;;5093573;28;20502;-76
2023/08/30 09:54:15;;;;;;;5.10;1.70;;;17.50;99.90;;;;;;5093200;28;20028;-77
2023/08/30 09:56:43;;;;;;;5.57;1.77;;;17.50;99.90;;;;;;5075744;28;20028;-77
2023/08/30 09:59:11;;;;;;;5.90;1.75;;;17.50;99.90;;;;;;5092953;28;20089;-77
2023/08/30 10:01:37;;;;;;;7.03;1.70;;;17.60;99.90;;;;;;5093688;28;20111;-77
2023/08/30 10:04:03;;;;;;;6.47;1.90;;;17.60;99.90;;;;;;5093008;28;20077;-76
2023/08/30 10:06:30;;;;;;;5.60;1.77;;;17.60;99.90;;;;;;5093222;28;20450;-76
2023/08/30 10:08:58;;;;;;;4.50;1.50;;;17.60;99.90;;;;;;5093116;28;20139;-77
2023/08/30 10:11:24;;;;;;;5.28;1.95;;;17.60;99.90;;;;;;5093611;28;20393;-77
2023/08/30 10:13:54;;;;;;;11.25;1.90;;;17.70;99.90;;;;;;5093431;28;20028;-77
2023/08/30 10:16:24;;;;;;;6.00;1.73;;;17.70;99.90;;;;;;5093532;28;20468;-77
2023/08/30 10:18:58;;;;;;;6.68;1.90;;;17.60;99.90;;;;;;5093710;28;20069;-77
2023/08/30 10:21:24;;;;;;;4.22;1.63;;;17.60;99.90;;;;;;5093577;28;20401;-77
2023/08/30 10:23:55;;;;;;;4.00;1.67;;;17.50;99.90;;;;;;5093227;28;20090;-77
2023/08/30 10:26:24;;;;;;;5.72;1.58;;;17.60;99.90;;;;;;5093496;28;20177;-77
2023/08/30 10:28:53;;;;;;;5.63;1.83;;;17.70;99.90;;;;;;5093759;28;20503;-77
2023/08/30 10:31:18;;;;;;;4.85;1.70;;;17.70;99.90;;;;;;5093617;28;20130;-77
2023/08/30 10:33:50;;;;;;;5.05;1.40;;;17.80;99.90;;;;;;5093387;28;20056;-77
2023/08/30 10:36:26;;;;;;;4.50;1.50;;;17.80;99.90;;;;;;5093412;28;20023;-76
2023/08/30 10:38:55;;;;;;;5.82;1.77;;;17.90;99.90;;;;;;5092841;28;20028;-77
2023/08/30 10:41:25;;;;;;;4.25;1.60;;;17.80;99.90;;;;;;5093112;28;20123;-77
2023/08/30 10:43:56;;;;;;;3.42;1.52;;;17.80;99.90;;;;;;5093088;28;20047;-77
2023/08/30 10:46:32;;;;;;;4.75;1.83;;;17.90;99.90;;;;;;5093177;28;20035;-78
2023/08/30 10:49:18;;;;;;;3.83;1.63;;;17.90;99.90;;;;;;5092782;28;20074;-77
2023/08/30 10:51:44;;;;;;;4.50;1.83;;;17.90;99.90;;;;;;5092508;28;20047;-77
2023/08/30 10:54:12;;;;;;;4.18;1.75;;;17.90;99.90;;;;;;5092710;28;20032;-77
2023/08/30 10:56:59;;;;;;;3.95;1.30;;;18.00;99.90;;;;;;5092934;28;20461;-78
2023/08/30 10:59:25;;;;;;;5.25;1.85;;;18.20;99.90;;;;;;5092781;28;20044;-76
2023/08/30 11:01:52;;;;;;;5.18;1.60;;;18.40;99.90;;;;;;5092739;28;20082;-76
2023/08/30 11:04:19;;;;;;;6.90;1.80;;;18.30;99.90;;;;;;5091867;28;20459;-77
2023/08/30 11:06:46;;;;;;;3.70;1.23;;;18.20;99.90;;;;;;5092554;28;20393;-77
2023/08/30 11:09:19;;;;;;;4.40;1.58;;;18.20;99.90;;;;;;5091775;28;20028;-77
2023/08/30 11:11:50;;;;;;;5.38;1.80;;;18.20;99.90;;;;;;5092377;28;20036;-77
2023/08/30 11:14:16;;;;;;;4.95;1.73;;;18.10;99.90;;;;;;5092038;28;20012;-77
2023/08/30 11:16:43;;;;;;;2.90;1.35;;;18.00;99.90;;;;;;5092215;28;20039;-77
2023/08/30 11:19:10;;;;;;;6.45;1.60;;;18.10;99.90;;;;;;5091871;28;20024;-77
2023/08/30 11:21:42;;;;;;;3.90;1.65;;;18.20;99.90;;;;;;5091960;28;20040;-77
2023/08/30 11:24:08;;;;;;;3.95;1.30;;;18.10;99.90;;;;;;5091327;28;20520;-77
2023/08/30 11:26:33;;;;;;;5.30;1.80;;;18.20;99.90;;;;;;5073763;28;20108;-77
2023/08/30 11:29:06;;;;;;;5.13;1.55;;;18.20;99.90;;;;;;5091514;28;20480;-76
2023/08/30 11:31:32;;;;;;;3.80;1.48;;;18.20;99.90;;;;;;5091488;28;20469;-77
2023/08/30 11:33:59;;;;;;;5.22;1.33;;;18.20;99.90;;;;;;5091192;28;20085;-77
2023/08/30 11:36:30;;;;;;;3.28;1.40;;;18.20;99.90;;;;;;5090602;28;20058;-77
2023/08/30 11:38:57;;;;;;;2.95;1.33;;;18.20;99.90;;;;;;5073299;28;20048;-77
2023/08/30 11:41:23;;;;;;;3.28;1.40;;;18.20;99.90;;;;;;5091662;28;20085;-76
2023/08/30 11:43:50;;;;;;;2.78;1.30;;;18.20;99.90;;;;;;5091395;28;20102;-76
2023/08/30 11:46:17;;;;;;;4.22;1.40;;;18.10;99.90;;;;;;5072961;28;20816;-76
2023/08/30 11:48:45;;;;;;;4.65;1.73;;;18.00;99.90;;;;;;5090860;28;20024;-77
2023/08/30 11:51:13;;;;;;;4.30;1.83;;;18.00;99.90;;;;;;5090962;28;20028;-77
2023/08/30 11:53:39;;;;;;;4.53;1.80;;;18.10;99.90;;;;;;5091263;28;20097;-78
2023/08/30 11:56:07;;;;;;;3.42;1.52;;;18.20;99.90;;;;;;5090601;28;20081;-78
2023/08/30 11:58:34;;;;;;;5.20;1.38;;;18.10;99.90;;;;;;5091266;28;20032;-78
2023/08/30 12:01:01;;;;;;;4.65;1.55;;;18.10;99.90;;;;;;5072259;28;20433;-77
2023/08/30 12:03:31;;;;;;;3.47;1.30;;;18.10;99.90;;;;;;5091299;28;20115;-77
2023/08/30 12:05:57;;;;;;;6.30;1.90;;;18.20;99.90;;;;;;5091308;28;20027;-77
2023/08/30 12:08:24;;;;;;;7.00;1.80;;;18.20;99.90;;;;;;5091060;28;20099;-78
2023/08/30 12:10:50;;;;;;;8.88;1.55;;;18.20;99.90;;;;;;5091107;28;20024;-78
2023/08/30 12:13:21;;;;;;;8.48;1.95;;;18.30;99.90;;;;;;5072897;28;20035;-79
2023/08/30 12:15:47;;;;;;;3.63;1.38;;;18.30;99.90;;;;;;5092127;28;20070;-78
2023/08/30 12:18:13;;;;;;;5.78;1.88;;;18.40;99.90;;;;;;5091162;28;20064;-77
2023/08/30 12:20:39;;;;;;;4.47;1.80;;;18.50;99.90;;;;;;5091561;28;20521;-78
2023/08/30 12:23:04;;;;;;;3.65;1.40;;;18.60;99.90;;;;;;5090476;28;20090;-78
2023/08/30 12:25:32;;;;;;;5.72;1.80;;;18.60;99.90;;;;;;5091208;28;20024;-78
2023/08/30 12:27:58;;;;;;;3.03;1.50;;;18.60;99.90;;;;;;5072581;28;20028;-78
2023/08/30 12:30:23;;;;;;;5.78;2.08;;;18.60;99.90;;;;;;5090000;28;20027;-78
2023/08/30 12:32:49;;;;;;;3.28;1.30;;;18.50;99.90;;;;;;5090758;28;20457;-78
2023/08/30 12:35:15;;;;;;;3.25;1.50;;;18.60;99.90;;;;;;5090328;28;20055;-78
2023/08/30 12:37:41;;;;;;;3.42;1.67;;;18.70;99.90;;;;;;5090996;28;20059;-77
2023/08/30 12:40:07;;;;;;;5.25;2.25;;;18.80;99.90;;;;;;5090222;28;20038;-78
2023/08/30 12:42:33;;;;;;;7.63;1.88;;;18.80;99.90;;;;;;5090589;28;20499;-78
2023/08/30 12:45:00;;;;;;;3.90;1.58;;;18.90;99.90;;;;;;5090390;28;20047;-78